Time;durP1;ratioP1;P1;durP2;ratioP2;P2;SDS_P1;SDS_P2;PMS_P1;PMS_P2;Temp;Humidity;BMP_temperature;BMP_pressure;BME280_temperature;BME280_humidity;BME280_pressure;Samples;Min_cycle;Max_cycle;Signal;HPM_P1;HPM_P2
2023/08/10 00:02:21;;;;;;;;;;;;;;;15.02;45.16;101014.09;4907815;28;98722;-77
2023/08/10 00:04:48;;;;;;;;;;;;;;;15.01;45.46;101017.09;4920110;28;98068;-69
2023/08/10 00:07:15;;;;;;;;;;;;;;;15.00;45.48;101019.00;4899052;28;98042;-77
2023/08/10 00:09:42;;;;;;;;;;;;;;;14.99;45.43;101022.81;4905062;28;98230;-69
2023/08/10 00:12:11;;;;;;;;;;;;;;;14.98;45.34;101023.91;4919571;28;98432;-77
2023/08/10 00:14:38;;;;;;;;;;;;;;;14.96;45.63;101024.19;4906670;28;98352;-69
2023/08/10 00:17:06;;;;;;;;;;;;;;;14.94;45.28;101020.94;4921941;28;98394;-69
2023/08/10 00:19:32;;;;;;;;;;;;;;;14.92;45.42;101025.84;4905809;28;98667;-69
2023/08/10 00:22:03;;;;;;;;;;;;;;;14.90;45.52;101019.91;4921269;28;98095;-77
2023/08/10 00:24:29;;;;;;;;;;;;;;;14.87;45.47;101020.44;4920591;28;98096;-69
2023/08/10 00:26:56;;;;;;;;;;;;;;;14.83;45.56;101016.69;4908052;28;98112;-69
2023/08/10 00:29:23;;;;;;;;;;;;;;;14.80;45.64;101013.72;4918677;28;98115;-69
2023/08/10 00:31:50;;;;;;;;;;;;;;;14.73;45.76;101017.53;4904742;28;98406;-69
2023/08/10 00:34:18;;;;;;;;;;;;;;;14.69;45.43;101016.50;4870306;28;99248;-76
2023/08/10 00:36:48;;;;;;;;;;;;;;;14.65;45.79;101012.72;4903877;28;98900;-77
2023/08/10 00:39:17;;;;;;;;;;;;;;;14.61;45.79;101019.78;4903529;28;98611;-78
2023/08/10 00:41:46;;;;;;;;;;;;;;;14.56;45.39;101017.13;4908287;28;98134;-78
2023/08/10 00:44:13;;;;;;;;;;;;;;;14.51;45.45;101019.88;4890444;28;98496;-70
2023/08/10 00:46:39;;;;;;;;;;;;;;;14.45;45.45;101024.47;4905097;28;98263;-69
2023/08/10 00:49:06;;;;;;;;;;;;;;;14.41;45.85;101028.84;4905149;28;98139;-70
2023/08/10 00:51:37;;;;;;;;;;;;;;;14.35;45.78;101021.81;4908574;28;98111;-77
2023/08/10 00:54:06;;;;;;;;;;;;;;;14.34;45.73;101022.91;4888031;28;98353;-78
2023/08/10 00:56:33;;;;;;;;;;;;;;;14.30;45.70;101024.53;4898405;28;98195;-71
2023/08/10 00:59:00;;;;;;;;;;;;;;;14.25;45.82;101021.88;4908128;28;98509;-70
2023/08/10 01:01:28;;;;;;;;;;;;;;;14.20;45.50;101024.59;4903483;28;98119;-78
2023/08/10 01:03:56;;;;;;;;;;;;;;;14.16;45.62;101023.53;4922758;28;98461;-77
2023/08/10 01:06:36;;;;;;;;;;;;;;;14.09;45.79;101025.72;4897479;28;99368;-70
2023/08/10 01:09:17;;;;;;;;;;;;;;;14.03;45.61;101024.13;4883043;28;98268;-70
2023/08/10 01:12:23;;;;;;;;;;;;;;;13.97;45.51;101032.28;4921014;28;98566;-70
2023/08/10 01:15:29;;;;;;;;;;;;;;;13.93;45.79;101042.03;4870508;28;98323;-76
2023/08/10 01:17:56;;;;;;;;;;;;;;;13.92;45.87;101040.44;4865746;28;99235;-70
2023/08/10 01:20:23;;;;;;;;;;;;;;;13.92;45.88;101047.75;4857609;28;98147;-69
2023/08/10 01:23:14;;;;;;;;;;;;;;;13.92;45.92;101045.03;4890097;28;98418;-77
2023/08/10 01:25:42;;;;;;;;;;;;;;;13.88;45.97;101038.56;4900692;28;98154;-70
2023/08/10 01:28:10;;;;;;;;;;;;;;;13.84;45.58;101041.00;4902875;28;98394;-78
2023/08/10 01:30:37;;;;;;;;;;;;;;;13.82;45.89;101036.94;4886106;28;98144;-69
2023/08/10 01:33:04;;;;;;;;;;;;;;;13.76;45.90;101038.84;4886629;28;98201;-69
2023/08/10 01:35:31;;;;;;;;;;;;;;;13.71;45.72;101034.22;4902981;28;99422;-70
2023/08/10 01:37:57;;;;;;;;;;;;;;;13.70;45.89;101038.03;4886801;28;98071;-70
2023/08/10 01:40:24;;;;;;;;;;;;;;;13.69;45.58;101038.31;4900420;28;98988;-69
2023/08/10 01:42:51;;;;;;;;;;;;;;;13.69;45.78;101049.16;4887069;28;98165;-70
2023/08/10 01:45:17;;;;;;;;;;;;;;;13.69;45.69;101051.88;4892539;28;98109;-69
2023/08/10 01:47:53;;;;;;;;;;;;;;;13.70;45.75;101054.28;4884315;28;98131;-77
2023/08/10 01:50:22;;;;;;;;;;;;;;;13.66;45.91;101045.09;4903715;28;98482;-77
2023/08/10 01:52:54;;;;;;;;;;;;;;;13.63;45.68;101045.63;4867260;28;98436;-70
2023/08/10 01:55:25;;;;;;;;;;;;;;;13.59;45.71;101039.13;4902255;28;99099;-77
2023/08/10 01:57:53;;;;;;;;;;;;;;;13.58;45.71;101047.53;4903670;28;98247;-77
2023/08/10 02:00:20;;;;;;;;;;;;;;;13.56;45.61;101042.41;4902754;28;98159;-77
2023/08/10 02:02:51;;;;;;;;;;;;;;;13.53;46.01;101045.66;4903855;28;98616;-77
2023/08/10 02:05:18;;;;;;;;;;;;;;;13.49;45.79;101044.59;4868726;28;99596;-70
2023/08/10 02:07:48;;;;;;;;;;;;;;;13.46;45.61;101050.53;4902758;28;98292;-70
2023/08/10 02:10:17;;;;;;;;;;;;;;;13.43;45.66;101041.06;4921535;28;98332;-77
2023/08/10 02:12:46;;;;;;;;;;;;;;;13.43;45.82;101048.38;4903650;28;98241;-76
2023/08/10 02:15:15;;;;;;;;;;;;;;;13.39;45.59;101050.00;4904370;28;98187;-77
2023/08/10 02:17:44;;;;;;;;;;;;;;;13.37;45.73;101044.06;4907391;28;98218;-76
2023/08/10 02:20:13;;;;;;;;;;;;;;;13.37;45.93;101057.59;4885704;28;98102;-77
2023/08/10 02:22:46;;;;;;;;;;;;;;;13.34;45.72;101053.53;4924678;28;98826;-78
2023/08/10 02:25:17;;;;;;;;;;;;;;;13.33;45.76;101057.31;4889714;28;98440;-77
2023/08/10 02:27:43;;;;;;;;;;;;;;;13.30;45.70;101054.34;4905498;28;97928;-70
2023/08/10 02:30:10;;;;;;;;;;;;;;;13.28;45.91;101060.00;4918664;28;98231;-70
2023/08/10 02:32:36;;;;;;;;;;;;;;;13.26;45.70;101054.06;4879011;28;99400;-70
2023/08/10 02:35:06;;;;;;;;;;;;;;;13.24;45.91;101061.63;4920815;28;98181;-70
2023/08/10 02:37:37;;;;;;;;;;;;;;;13.22;45.65;101051.06;4922776;28;98105;-76
2023/08/10 02:40:04;;;;;;;;;;;;;;;13.19;45.57;101061.63;4904032;28;97829;-76
2023/08/10 02:42:31;;;;;;;;;;;;;;;13.17;45.83;101064.59;4889498;28;98232;-77
2023/08/10 02:44:57;;;;;;;;;;;;;;;13.17;45.88;101061.91;4923230;28;98200;-70
2023/08/10 02:47:27;;;;;;;;;;;;;;;13.14;45.94;101057.00;4904621;28;98141;-69
2023/08/10 02:49:53;;;;;;;;;;;;;;;13.11;46.01;101052.13;4898955;28;98149;-70
2023/08/10 02:52:23;;;;;;;;;;;;;;;13.09;45.89;101057.03;4872178;28;98178;-77
2023/08/10 02:54:51;;;;;;;;;;;;;;;13.03;45.76;101047.25;4918247;28;98550;-77
2023/08/10 02:57:17;;;;;;;;;;;;;;;12.96;45.89;101044.00;4908301;28;98247;-70
2023/08/10 02:59:43;;;;;;;;;;;;;;;12.86;45.77;101046.72;4901285;28;98200;-77
2023/08/10 03:02:12;;;;;;;;;;;;;;;12.78;45.85;101037.22;4903465;28;100418;-78
2023/08/10 03:04:39;;;;;;;;;;;;;;;12.72;45.92;101036.38;4899088;28;98258;-70
2023/08/10 03:07:06;;;;;;;;;;;;;;;12.68;45.99;101046.13;4889631;28;99032;-77
2023/08/10 03:09:33;;;;;;;;;;;;;;;12.64;45.93;101039.63;4887948;28;99621;-70
2023/08/10 03:11:59;;;;;;;;;;;;;;;12.62;46.00;101049.91;4906197;28;98119;-71
2023/08/10 03:14:26;;;;;;;;;;;;;;;12.64;45.85;101065.84;4922190;28;98545;-74
2023/08/10 03:16:57;;;;;;;;;;;;;;;12.64;45.90;101069.38;4920355;28;98369;-77
2023/08/10 03:19:24;;;;;;;;;;;;;;;12.66;45.88;101069.13;4918242;28;98065;-77
2023/08/10 03:21:53;;;;;;;;;;;;;;;12.64;45.95;101069.38;4920451;28;97975;-77
2023/08/10 03:24:20;;;;;;;;;;;;;;;12.64;45.85;101073.97;4901225;28;98580;-77
2023/08/10 03:26:47;;;;;;;;;;;;;;;12.62;45.87;101074.25;4908713;28;98862;-78
2023/08/10 03:29:16;;;;;;;;;;;;;;;12.60;45.88;101079.09;4875345;28;98011;-77
2023/08/10 03:31:42;;;;;;;;;;;;;;;12.60;46.01;101081.78;4900664;28;97982;-77
2023/08/10 03:34:08;;;;;;;;;;;;;;;12.61;45.85;101082.59;4900066;28;98224;-70
2023/08/10 03:36:35;;;;;;;;;;;;;;;12.59;45.86;101084.78;4923530;28;98989;-77
2023/08/10 03:39:01;;;;;;;;;;;;;;;12.58;46.03;101086.69;4897264;28;97957;-70
2023/08/10 03:41:30;;;;;;;;;;;;;;;12.58;45.96;101083.16;4891053;28;99068;-77
2023/08/10 03:43:56;;;;;;;;;;;;;;;12.57;45.92;101084.22;4907483;28;97920;-70
2023/08/10 03:46:22;;;;;;;;;;;;;;;12.57;46.04;101090.44;4908414;28;98155;-70
2023/08/10 03:48:49;;;;;;;;;;;;;;;12.55;46.01;101086.38;4904079;28;111656;-70
2023/08/10 03:51:17;;;;;;;;;;;;;;;12.54;46.00;101091.00;4937158;28;98167;-78
2023/08/10 03:53:45;;;;;;;;;;;;;;;12.51;45.85;101089.63;4921421;28;98323;-77
2023/08/10 03:56:15;;;;;;;;;;;;;;;12.51;45.84;101094.22;4872750;28;98157;-77
2023/08/10 03:58:42;;;;;;;;;;;;;;;12.50;46.02;101096.13;4890967;28;98788;-70
2023/08/10 04:01:09;;;;;;;;;;;;;;;12.50;45.80;101095.31;4898424;28;98453;-77
2023/08/10 04:03:36;;;;;;;;;;;;;;;12.47;45.87;101096.63;4906586;28;98157;-70
2023/08/10 04:06:02;;;;;;;;;;;;;;;12.44;45.81;101097.16;4869443;28;98564;-77
2023/08/10 04:08:29;;;;;;;;;;;;;;;12.43;45.74;101097.44;4886645;28;98298;-70
2023/08/10 04:10:56;;;;;;;;;;;;;;;12.42;45.70;101093.09;4906174;28;98618;-77
2023/08/10 04:13:23;;;;;;;;;;;;;;;12.38;46.10;101098.22;4874431;28;98156;-77
2023/08/10 04:15:50;;;;;;;;;;;;;;;12.38;45.73;101095.53;4868355;28;98214;-70
2023/08/10 04:18:17;;;;;;;;;;;;;;;12.36;45.75;101103.06;4891045;28;98273;-77
2023/08/10 04:20:43;;;;;;;;;;;;;;;12.34;45.80;101099.84;4908787;28;98550;-70
2023/08/10 04:23:10;;;;;;;;;;;;;;;12.31;45.96;101104.94;4907786;28;98826;-70
2023/08/10 04:25:37;;;;;;;;;;;;;;;12.31;45.88;101103.06;4903777;28;98008;-77
2023/08/10 04:28:07;;;;;;;;;;;;;;;12.32;45.92;101103.88;4907283;28;98254;-77
2023/08/10 04:30:33;;;;;;;;;;;;;;;12.32;45.79;101099.28;4877352;28;98263;-70
2023/08/10 04:32:59;;;;;;;;;;;;;;;12.32;45.86;101107.38;4923184;28;98378;-70
2023/08/10 04:35:26;;;;;;;;;;;;;;;12.33;45.77;101105.50;4891266;28;99152;-70
2023/08/10 04:37:53;;;;;;;;;;;;;;;12.34;45.69;101110.66;4909611;28;98146;-76
2023/08/10 04:40:20;;;;;;;;;;;;;;;12.38;45.63;101103.63;4923265;28;98688;-70
2023/08/10 04:42:48;;;;;;;;;;;;;;;12.43;45.77;101113.66;4927789;28;98421;-77
2023/08/10 04:45:15;;;;;;;;;;;;;;;12.48;45.62;101117.19;4907423;28;99178;-77
2023/08/10 04:47:42;;;;;;;;;;;;;;;12.63;45.57;101108.31;4869123;28;98062;-70
2023/08/10 04:50:09;;;;;;;;;;;;;;;12.77;45.50;101112.16;4911337;28;99516;-70
2023/08/10 04:52:38;;;;;;;;;;;;;;;12.91;45.29;101119.75;4886972;28;98283;-77
2023/08/10 04:55:05;;;;;;;;;;;;;;;13.06;45.20;101125.22;4921245;28;98018;-70
2023/08/10 04:57:31;;;;;;;;;;;;;;;13.20;45.17;101125.50;4924312;28;98273;-70
2023/08/10 04:59:57;;;;;;;;;;;;;;;13.33;45.12;101119.59;4891199;28;98197;-70
2023/08/10 05:02:29;;;;;;;;;;;;;;;13.42;45.18;101117.16;4912572;28;98537;-77
2023/08/10 05:04:56;;;;;;;;;;;;;;;13.49;45.02;101113.09;4890271;28;98375;-77
2023/08/10 05:07:26;;;;;;;;;;;;;;;13.57;45.29;101122.56;4916764;28;98127;-77
2023/08/10 05:09:52;;;;;;;;;;;;;;;13.65;45.21;101118.50;4905834;28;98471;-77
2023/08/10 05:12:18;;;;;;;;;;;;;;;13.72;45.02;101122.56;4871448;28;99547;-76
2023/08/10 05:14:48;;;;;;;;;;;;;;;13.77;45.22;101120.94;4851206;28;98462;-77
2023/08/10 05:17:15;;;;;;;;;;;;;;;13.85;45.35;101126.63;4896379;28;98204;-70
2023/08/10 05:19:42;;;;;;;;;;;;;;;13.92;45.28;101126.34;4849050;28;98559;-76
2023/08/10 05:22:09;;;;;;;;;;;;;;;14.08;44.81;101138.78;4879865;28;98323;-70
2023/08/10 05:24:35;;;;;;;;;;;;;;;14.27;45.05;101132.78;4894258;28;100235;-70
2023/08/10 05:27:02;;;;;;;;;;;;;;;14.46;44.91;101131.06;4879292;28;98333;-70
2023/08/10 05:29:28;;;;;;;;;;;;;;;14.60;44.65;101134.84;4885774;28;98351;-70
2023/08/10 05:31:55;;;;;;;;;;;;;;;14.85;44.69;101128.47;4851017;28;99039;-70
2023/08/10 05:34:22;;;;;;;;;;;;;;;15.05;44.19;101124.84;4882224;28;98192;-77
2023/08/10 05:36:49;;;;;;;;;;;;;;;15.31;44.13;101127.38;4852923;28;98278;-70
2023/08/10 05:39:16;;;;;;;;;;;;;;;15.55;44.28;101130.97;4852308;28;98652;-77
2023/08/10 05:41:43;;;;;;;;;;;;;;;15.65;44.04;101133.66;4853164;28;98329;-77
2023/08/10 05:44:12;;;;;;;;;;;;;;;15.81;44.28;101137.06;4870395;28;98651;-70
2023/08/10 05:46:39;;;;;;;;;;;;;;;15.89;44.17;101143.78;4853201;28;98396;-77
2023/08/10 05:49:06;;;;;;;;;;;;;;;15.90;44.36;101137.22;4866260;28;98503;-69
2023/08/10 05:51:33;;;;;;;;;;;;;;;16.02;44.29;101137.66;4881612;28;97915;-74
2023/08/10 05:53:59;;;;;;;;;;;;;;;16.06;44.27;101141.41;4883452;28;97898;-70
2023/08/10 05:56:26;;;;;;;;;;;;;;;16.30;44.38;101146.88;4852675;28;98312;-69
2023/08/10 05:58:52;;;;;;;;;;;;;;;16.51;43.99;101139.31;4883739;28;99651;-70
2023/08/10 06:01:19;;;;;;;;;;;;;;;16.66;44.01;101144.56;4874209;28;98239;-69
2023/08/10 06:03:46;;;;;;;;;;;;;;;16.81;44.14;101146.28;4879649;28;98069;-69
2023/08/10 06:06:12;;;;;;;;;;;;;;;16.95;43.92;101143.66;4867259;28;99599;-76
2023/08/10 06:08:39;;;;;;;;;;;;;;;17.10;43.94;101145.38;4903788;28;100159;-77
2023/08/10 06:11:05;;;;;;;;;;;;;;;17.27;43.80;101145.63;4901211;28;98782;-69
2023/08/10 06:13:34;;;;;;;;;;;;;;;17.42;43.83;101153.56;4886122;28;97878;-69
2023/08/10 06:16:01;;;;;;;;;;;;;;;17.61;43.75;101148.09;4913654;28;98803;-77
2023/08/10 06:18:27;;;;;;;;;;;;;;;17.81;43.81;101146.16;4895270;28;100023;-69
2023/08/10 06:20:54;;;;;;;;;;;;;;;18.03;43.68;101150.94;4887383;28;98183;-77
2023/08/10 06:23:20;;;;;;;;;;;;;;;18.26;43.28;101154.63;4883626;28;98220;-69
2023/08/10 06:25:47;;;;;;;;;;;;;;;18.47;43.24;101146.81;4883094;28;98527;-69
2023/08/10 06:28:16;;;;;;;;;;;;;;;18.69;43.35;101152.38;4898249;28;98226;-77
2023/08/10 06:30:42;;;;;;;;;;;;;;;18.93;43.28;101152.16;4898430;28;98961;-76
2023/08/10 06:33:11;;;;;;;;;;;;;;;19.17;43.17;101156.56;4898777;28;98009;-77
2023/08/10 06:35:39;;;;;;;;;;;;;;;19.44;43.05;101153.72;4897007;28;98535;-78
2023/08/10 06:38:05;;;;;;;;;;;;;;;19.72;42.97;101156.34;4897731;28;98390;-70
2023/08/10 06:40:31;;;;;;;;;;;;;;;19.98;42.71;101153.78;4902516;28;98323;-69
2023/08/10 06:42:58;;;;;;;;;;;;;;;20.28;42.73;101160.38;4884349;28;98493;-69
2023/08/10 06:45:25;;;;;;;;;;;;;;;20.65;42.47;101164.53;4885174;28;98542;-76
2023/08/10 06:47:52;;;;;;;;;;;;;;;21.11;42.23;101165.91;4932093;28;98183;-70
2023/08/10 06:50:19;;;;;;;;;;;;;;;21.64;41.82;101172.19;4883384;28;98309;-78
2023/08/10 06:52:46;;;;;;;;;;;;;;;22.09;41.87;101164.34;4886098;28;98247;-69
2023/08/10 06:55:12;;;;;;;;;;;;;;;22.73;41.35;101166.97;4882383;28;98213;-77
2023/08/10 06:57:39;;;;;;;;;;;;;;;24.30;39.90;101180.16;4897412;28;103771;-78
2023/08/10 07:00:07;;;;;;;;;;;;;;;24.16;40.21;101176.91;4897272;28;98718;-78
2023/08/10 07:02:34;;;;;;;;;;;;;;;24.34;40.64;101183.84;4899895;28;98241;-69
2023/08/10 07:05:00;;;;;;;;;;;;;;;24.07;41.15;101177.03;4899561;28;99441;-69
2023/08/10 07:07:27;;;;;;;;;;;;;;;24.60;40.58;101183.53;4913907;28;98738;-77
2023/08/10 07:09:54;;;;;;;;;;;;;;;24.83;40.69;101175.56;4895290;28;98262;-69
2023/08/10 07:12:20;;;;;;;;;;;;;;;25.05;40.68;101177.03;4885347;28;107379;-69
2023/08/10 07:14:46;;;;;;;;;;;;;;;25.31;40.58;101170.31;4898391;28;124397;-77
2023/08/10 07:17:13;;;;;;;;;;;;;;;25.64;40.23;101175.59;4899253;28;98073;-69
2023/08/10 07:19:39;;;;;;;;;;;;;;;26.08;40.16;101165.34;4900700;28;98312;-77
2023/08/10 07:22:06;;;;;;;;;;;;;;;26.61;39.87;101168.66;4910212;28;98149;-77
2023/08/10 07:24:33;;;;;;;;;;;;;;;27.09;39.42;101176.81;4894962;28;98038;-77
2023/08/10 07:27:00;;;;;;;;;;;;;;;27.59;39.00;101170.34;4902530;28;98126;-69
2023/08/10 07:29:27;;;;;;;;;;;;;;;28.11;39.03;101177.25;4933156;28;98155;-77
2023/08/10 07:32:00;;;;;;;;;;;;;;;28.59;38.55;101179.63;4898570;28;97888;-77
2023/08/10 07:34:29;;;;;;;;;;;;;;;29.05;38.69;101174.78;4901286;28;97899;-76
2023/08/10 07:36:56;;;;;;;;;;;;;;;29.39;38.79;101173.97;4864931;28;97952;-77
2023/08/10 07:39:22;;;;;;;;;;;;;;;29.75;38.54;101173.22;4882341;28;98476;-77
2023/08/10 07:41:49;;;;;;;;;;;;;;;30.18;38.24;101167.28;4895955;28;98214;-69
2023/08/10 07:44:15;;;;;;;;;;;;;;;30.51;38.11;101172.72;4901498;28;104345;-77
2023/08/10 07:46:43;;;;;;;;;;;;;;;30.87;37.95;101164.59;4903647;28;98077;-68
2023/08/10 07:49:11;;;;;;;;;;;;;;;31.18;37.93;101168.72;4869153;28;98364;-68
2023/08/10 07:51:39;;;;;;;;;;;;;;;31.50;37.77;101174.44;4898718;28;98281;-68
2023/08/10 07:54:06;;;;;;;;;;;;;;;31.79;37.60;101177.28;4861624;28;99749;-77
2023/08/10 07:56:32;;;;;;;;;;;;;;;32.09;38.09;101176.16;4899775;28;98286;-68
2023/08/10 07:58:58;;;;;;;;;;;;;;;32.45;37.48;101185.31;4895222;28;98509;-77
2023/08/10 08:01:25;;;;;;;;;;;;;;;32.75;37.72;101180.09;4901252;28;98920;-68
2023/08/10 08:03:52;;;;;;;;;;;;;;;33.26;37.22;101177.16;4893900;28;98056;-77
2023/08/10 08:06:18;;;;;;;;;;;;;;;33.81;37.11;101187.66;4896294;28;99441;-68
2023/08/10 08:08:45;;;;;;;;;;;;;;;34.35;36.68;101182.44;4915384;28;98545;-68
2023/08/10 08:11:12;;;;;;;;;;;;;;;34.80;36.65;101174.03;4898946;28;100849;-68
2023/08/10 08:13:39;;;;;;;;;;;;;;;35.39;36.36;101177.31;4914187;28;98290;-68
2023/08/10 08:16:06;;;;;;;;;;;;;;;35.96;35.80;101174.88;4868230;28;101225;-75
2023/08/10 08:18:49;;;;;;;;;;;;;;;36.41;36.03;101183.78;4866338;28;99485;-69
2023/08/10 08:21:15;;;;;;;;;;;;;;;36.91;35.71;101177.25;4918745;28;98371;-68
2023/08/10 08:23:42;;;;;;;;;;;;;;;37.53;35.82;101180.38;4930167;28;98316;-77
2023/08/10 08:26:08;;;;;;;;;;;;;;;38.22;34.91;101171.91;4884848;28;99924;-68
2023/08/10 08:28:37;;;;;;;;;;;;;;;38.79;34.77;101170.38;4898421;28;98300;-68
2023/08/10 08:31:05;;;;;;;;;;;;;;;39.46;34.75;101176.06;4899909;28;98499;-77
2023/08/10 08:33:32;;;;;;;;;;;;;;;39.65;34.49;101162.97;4886662;28;98898;-68
2023/08/10 08:35:59;;;;;;;;;;;;;;;40.07;34.62;101162.03;4886215;28;98872;-69
2023/08/10 08:38:26;;;;;;;;;;;;;;;40.44;34.64;101157.53;4884597;28;98108;-69
2023/08/10 08:40:55;;;;;;;;;;;;;;;41.00;34.11;101156.75;4899236;28;99481;-69
2023/08/10 08:43:22;;;;;;;;;;;;;;;41.48;34.07;101159.34;4894821;28;99316;-77
2023/08/10 08:45:49;;;;;;;;;;;;;;;41.78;33.76;101152.84;4898055;28;98416;-69
2023/08/10 08:48:17;;;;;;;;;;;;;;;41.80;34.31;101153.16;4900095;28;100074;-78
2023/08/10 08:50:47;;;;;;;;;;;;;;;40.77;35.32;101140.25;4899069;28;98171;-78
2023/08/10 08:53:14;;;;;;;;;;;;;;;41.64;34.68;101148.56;4902421;28;98040;-77
2023/08/10 08:55:41;;;;;;;;;;;;;;;42.49;33.79;101143.38;4890001;28;99767;-69
2023/08/10 08:58:07;;;;;;;;;;;;;;;42.86;33.89;101146.16;4903687;28;99603;-68
2023/08/10 09:00:34;;;;;;;;;;;;;;;43.00;33.90;101147.56;4866862;28;98817;-78
2023/08/10 09:03:03;;;;;;;;;;;;;;;43.27;33.76;101149.50;4919610;28;98390;-78
2023/08/10 09:05:31;;;;;;;;;;;;;;;43.34;33.73;101143.50;4902484;28;99255;-69
2023/08/10 09:07:58;;;;;;;;;;;;;;;43.61;33.91;101143.38;4888218;28;98571;-78
2023/08/10 09:10:27;;;;;;;;;;;;;;;43.64;33.51;101149.38;4900497;28;98287;-78
2023/08/10 09:12:54;;;;;;;;;;;;;;;44.22;33.31;101142.38;4905727;28;97937;-78
2023/08/10 09:15:21;;;;;;;;;;;;;;;42.52;34.86;101135.94;4920445;28;99330;-68
2023/08/10 09:17:49;;;;;;;;;;;;;;;41.14;35.77;101124.31;4908547;28;98486;-76
2023/08/10 09:20:25;;;;;;;;;;;;;;;42.64;34.23;101130.13;4921139;28;98561;-79
2023/08/10 09:22:56;;;;;;;;;;;;;;;43.33;33.78;101137.03;4933162;28;98844;-69
2023/08/10 09:25:24;;;;;;;;;;;;;;;42.84;34.20;101128.84;4919512;28;98793;-68
2023/08/10 09:27:52;;;;;;;;;;;;;;;42.23;34.94;101133.59;4899924;28;99632;-77
2023/08/10 09:30:18;;;;;;;;;;;;;;;41.90;35.35;101120.84;4915899;28;100283;-68
2023/08/10 09:32:45;;;;;;;;;;;;;;;40.97;36.17;101118.06;4900122;28;98193;-78
2023/08/10 09:35:17;;;;;;;;;;;;;;;39.91;37.06;101109.38;4916929;28;98124;-78
2023/08/10 09:37:44;;;;;;;;;;;;;;;40.15;36.61;101116.22;4899714;28;98003;-78
2023/08/10 09:40:15;;;;;;;;;;;;;;;41.41;35.23;101118.78;4899980;28;98086;-68
2023/08/10 09:42:45;;;;;;;;;;;;;;;42.35;34.53;101124.19;4917783;28;99604;-68
2023/08/10 09:45:13;;;;;;;;;;;;;;;42.98;33.89;101127.41;4884037;28;98573;-78
2023/08/10 09:47:40;;;;;;;;;;;;;;;43.93;32.99;101126.81;4915188;28;98416;-78
2023/08/10 09:50:16;;;;;;;;;;;;;;;44.23;33.02;101127.69;4919809;28;98519;-68
2023/08/10 09:52:44;;;;;;;;;;;;;;;44.98;32.68;101126.50;4913464;28;98674;-68
2023/08/10 09:55:11;;;;;;;;;;;;;;;42.28;34.96;101124.50;4887729;28;98302;-78
2023/08/10 09:57:44;;;;;;;;;;;;;;;44.15;33.29;101122.88;4919428;28;98617;-68
2023/08/10 10:00:22;;;;;;;;;;;;;;;44.88;32.51;101110.81;4900280;28;97968;-78
2023/08/10 10:02:49;;;;;;;;;;;;;;;45.52;32.56;101117.81;4869913;28;98250;-78
2023/08/10 10:05:21;;;;;;;;;;;;;;;46.02;32.27;101121.34;4902409;28;99004;-69
2023/08/10 10:07:48;;;;;;;;;;;;;;;46.25;32.11;101110.19;4933973;28;100299;-78
2023/08/10 10:10:15;;;;;;;;;;;;;;;46.28;32.10;101109.22;4898642;28;99763;-68
2023/08/10 10:12:42;;;;;;;;;;;;;;;43.59;34.83;101100.53;4918752;28;99261;-69
2023/08/10 10:15:09;;;;;;;;;;;;;;;44.53;33.83;101108.66;4914855;28;98477;-68
2023/08/10 10:17:35;;;;;;;;;;;;;;;42.37;35.40;101105.47;4917747;28;98691;-78
2023/08/10 10:20:04;;;;;;;;;;;;;;;43.58;34.23;101098.97;4869655;28;98689;-68
2023/08/10 10:22:32;;;;;;;;;;;;;;;44.56;33.15;101106.88;4872411;28;98326;-77
2023/08/10 10:25:00;;;;;;;;;;;;;;;41.79;35.67;101091.41;4918134;28;98462;-68
2023/08/10 10:27:40;;;;;;;;;;;;;;;41.12;36.01;101095.75;4918491;28;99655;-69
2023/08/10 10:30:16;;;;;;;;;;;;;;;41.26;35.50;101100.81;4899180;28;98529;-68
2023/08/10 10:32:48;;;;;;;;;;;;;;;39.23;37.79;101095.47;4896684;28;98593;-78
2023/08/10 10:35:29;;;;;;;;;;;;;;;38.24;38.10;101097.06;4906182;28;98618;-78
2023/08/10 10:38:01;;;;;;;;;;;;;;;36.27;39.97;101088.63;4915972;28;98376;-68
2023/08/10 10:40:27;;;;;;;;;;;;;;;37.61;37.46;101091.03;4895634;28;97988;-68
2023/08/10 10:43:03;;;;;;;;;;;;;;;38.96;36.17;101092.25;4893227;28;98454;-68
2023/08/10 10:45:39;;;;;;;;;;;;;;;38.97;35.93;101091.78;4900581;28;98042;-68
2023/08/10 10:48:06;;;;;;;;;;;;;;;39.86;35.18;101101.50;4861823;28;100005;-68
2023/08/10 10:50:32;;;;;;;;;;;;;;;38.22;37.18;101093.91;4885549;28;98001;-68
2023/08/10 10:53:17;;;;;;;;;;;;;;;36.97;38.29;101084.88;4899971;28;98277;-72
2023/08/10 10:55:44;;;;;;;;;;;;;;;38.89;35.78;101081.19;4911775;28;99999;-78
2023/08/10 10:58:12;;;;;;;;;;;;;;;38.33;36.45;101090.00;4910216;28;99238;-77
2023/08/10 11:00:38;;;;;;;;;;;;;;;36.96;37.76;101084.09;4868364;28;99170;-68
2023/08/10 11:03:07;;;;;;;;;;;;;;;38.47;35.76;101092.44;4902795;28;98296;-69
2023/08/10 11:05:34;;;;;;;;;;;;;;;39.78;34.64;101089.69;4887565;28;98241;-78
2023/08/10 11:08:03;;;;;;;;;;;;;;;36.43;38.50;101080.28;4900569;28;99141;-68
2023/08/10 11:10:35;;;;;;;;;;;;;;;35.04;39.27;101069.34;4914620;28;98393;-78
2023/08/10 11:13:03;;;;;;;;;;;;;;;37.63;35.80;101077.34;4896559;28;98285;-78
2023/08/10 11:15:30;;;;;;;;;;;;;;;36.95;36.75;101082.50;4915731;28;98415;-78
2023/08/10 11:17:57;;;;;;;;;;;;;;;38.01;35.58;101086.84;4897674;28;99010;-78
2023/08/10 11:20:26;;;;;;;;;;;;;;;39.06;34.63;101081.88;4898725;28;112648;-68
2023/08/10 11:22:53;;;;;;;;;;;;;;;38.75;35.06;101079.56;4880556;28;98583;-78
2023/08/10 11:25:25;;;;;;;;;;;;;;;37.73;36.45;101073.47;4914375;28;98025;-68
2023/08/10 11:27:53;;;;;;;;;;;;;;;36.43;37.65;101069.06;4899651;28;98159;-78
2023/08/10 11:30:22;;;;;;;;;;;;;;;36.09;37.86;101066.53;4915703;28;98103;-69
2023/08/10 11:32:51;;;;;;;;;;;;;;;34.67;39.03;101059.03;4882272;28;99709;-68
2023/08/10 11:35:22;;;;;;;;;;;;;;;35.52;37.98;101053.47;4897410;28;99586;-68
2023/08/10 11:37:49;;;;;;;;;;;;;;;34.72;38.74;101054.97;4916863;28;101035;-68
2023/08/10 11:40:21;;;;;;;;;;;;;;;35.41;37.79;101054.41;4899391;28;98225;-78
2023/08/10 11:43:12;;;;;;;;;;;;;;;36.04;36.90;101051.00;4883070;28;98139;-68
2023/08/10 11:45:39;;;;;;;;;;;;;;;34.66;38.46;101046.22;4924229;28;98302;-68
2023/08/10 11:48:10;;;;;;;;;;;;;;;33.55;39.81;101046.53;4869323;28;100641;-77
2023/08/10 11:50:38;;;;;;;;;;;;;;;32.52;40.18;101048.63;4864071;28;99485;-78
2023/08/10 11:53:25;;;;;;;;;;;;;;;31.95;40.87;101029.22;4896490;28;98141;-68
2023/08/10 11:55:53;;;;;;;;;;;;;;;33.81;38.35;101050.72;4916520;28;98767;-68
2023/08/10 11:58:20;;;;;;;;;;;;;;;34.03;37.95;101034.53;4912741;28;99743;-78
2023/08/10 12:00:52;;;;;;;;;;;;;;;34.85;37.19;101045.59;4898164;28;98268;-68
2023/08/10 12:03:25;;;;;;;;;;;;;;;35.30;36.95;101039.78;4917638;28;98375;-77
2023/08/10 12:05:54;;;;;;;;;;;;;;;35.68;36.76;101031.16;4930223;28;98191;-68
2023/08/10 12:08:30;;;;;;;;;;;;;;;36.12;36.45;101029.22;4896414;28;98294;-77
2023/08/10 12:11:03;;;;;;;;;;;;;;;35.53;37.11;101033.44;4868101;28;98417;-69
2023/08/10 12:13:30;;;;;;;;;;;;;;;34.10;38.62;101029.66;4932065;28;98646;-78
2023/08/10 12:15:58;;;;;;;;;;;;;;;34.85;37.67;101023.19;4882790;28;98198;-77
2023/08/10 12:18:25;;;;;;;;;;;;;;;35.31;37.21;101024.56;4900406;28;102298;-68
2023/08/10 12:20:55;;;;;;;;;;;;;;;35.58;37.38;101023.75;4882153;28;98350;-78
2023/08/10 12:23:22;;;;;;;;;;;;;;;35.80;37.07;101030.56;4898787;28;98549;-68
2023/08/10 12:25:51;;;;;;;;;;;;;;;36.04;37.00;101020.16;4863008;28;98413;-78
2023/08/10 12:28:19;;;;;;;;;;;;;;;36.22;36.96;101028.22;4884451;28;98567;-68
2023/08/10 12:30:48;;;;;;;;;;;;;;;36.45;36.59;101018.94;4874071;28;98254;-69
2023/08/10 12:33:16;;;;;;;;;;;;;;;36.20;37.24;101013.03;4907197;28;98401;-68
2023/08/10 12:35:42;;;;;;;;;;;;;;;36.35;37.07;101017.13;4902451;28;98513;-78
2023/08/10 12:38:10;;;;;;;;;;;;;;;35.51;37.83;101019.06;4919559;28;98466;-68
2023/08/10 12:40:42;;;;;;;;;;;;;;;36.03;37.53;101010.13;4874037;28;98626;-68
2023/08/10 12:43:09;;;;;;;;;;;;;;;35.74;37.41;101011.88;4913556;28;98242;-69